Time;durP1;ratioP1;P1;durP2;ratioP2;P2;SDS_P1;SDS_P2;PMS_P1;PMS_P2;Temp;Humidity;BMP_temperature;BMP_pressure;BME280_temperature;BME280_humidity;BME280_pressure;Samples;Min_cycle;Max_cycle;Signal;HPM_P1;HPM_P2
2022/04/28 00:00:40;;;;;;;9.35;2.30;;;;;;;8.49;44.74;99684.69;5011893;28;20049;-75
2022/04/28 00:03:07;;;;;;;6.15;2.28;;;;;;;8.47;44.63;99690.38;4990644;28;20046;-76
2022/04/28 00:05:34;;;;;;;6.22;2.40;;;;;;;8.35;44.85;99696.03;5002794;28;20159;-76
2022/04/28 00:08:01;;;;;;;7.90;2.42;;;;;;;8.34;44.93;99702.56;5030107;28;20510;-74
2022/04/28 00:10:28;;;;;;;5.60;2.40;;;;;;;8.37;44.63;99707.50;4975374;28;20052;-75
2022/04/28 00:12:54;;;;;;;10.40;3.50;;;;;;;8.28;44.38;99702.81;4961460;28;20045;-76
2022/04/28 00:15:20;;;;;;;6.63;2.33;;;;;;;8.31;43.72;99713.16;5013697;28;20049;-74
2022/04/28 00:17:47;;;;;;;7.55;2.30;;;;;;;8.29;42.72;99724.34;5006323;28;20050;-75
2022/04/28 00:20:13;;;;;;;5.63;1.90;;;;;;;8.26;42.24;99726.75;5009721;28;20054;-75
2022/04/28 00:22:39;;;;;;;6.57;2.25;;;;;;;8.22;41.66;99724.56;4992685;28;20057;-76
2022/04/28 00:25:06;;;;;;;4.45;1.80;;;;;;;8.23;41.11;99728.94;4976348;28;20128;-75
2022/04/28 00:27:33;;;;;;;5.40;1.65;;;;;;;8.21;40.37;99725.66;5010577;28;20564;-76
2022/04/28 00:30:01;;;;;;;6.47;1.98;;;;;;;8.28;39.64;99730.88;4986924;28;20399;-77
2022/04/28 00:32:28;;;;;;;5.68;1.90;;;;;;;8.22;39.53;99740.06;4993673;28;20041;-75
2022/04/28 00:34:55;;;;;;;6.97;1.95;;;;;;;8.15;39.31;99737.56;5003562;28;20104;-75
2022/04/28 00:37:21;;;;;;;6.00;2.20;;;;;;;8.22;38.88;99745.53;4986622;28;20050;-73
2022/04/28 00:39:48;;;;;;;6.00;1.88;;;;;;;8.24;38.90;99748.81;4992172;28;20576;-74
2022/04/28 00:42:15;;;;;;;6.20;1.70;;;;;;;8.20;38.79;99756.69;5011182;28;20685;-75
2022/04/28 00:44:43;;;;;;;6.68;1.98;;;;;;;8.14;38.57;99759.63;5009243;28;20045;-73
2022/04/28 00:47:10;;;;;;;7.65;2.30;;;;;;;8.09;38.65;99757.69;4988945;28;20081;-73
2022/04/28 00:52:23;;;;;;;5.45;1.75;;;;;;;8.02;38.57;99759.78;5010911;28;19925;-73
2022/04/28 00:54:52;;;;;;;6.53;1.70;;;;;;;8.03;38.34;99767.69;4990382;28;20177;-73
2022/04/28 00:57:19;;;;;;;5.57;1.90;;;;;;;7.92;38.54;99755.06;5008448;28;20046;-73
2022/04/28 00:59:47;;;;;;;7.35;2.10;;;;;;;7.97;38.37;99760.59;4992852;28;20062;-74
2022/04/28 01:02:14;;;;;;;8.82;2.20;;;;;;;7.97;38.34;99757.03;4993243;28;20510;-73
2022/04/28 01:04:40;;;;;;;5.20;2.03;;;;;;;7.97;38.62;99763.31;4991973;28;20399;-75
2022/04/28 01:07:07;;;;;;;8.48;2.38;;;;;;;7.83;38.44;99734.84;4990473;28;20521;-75
2022/04/28 01:09:36;;;;;;;8.57;2.30;;;;;;;7.92;38.62;99744.19;4992404;28;20053;-75
2022/04/28 01:12:10;;;;;;;9.55;3.10;;;;;;;7.89;39.10;99750.16;4992148;28;20089;-74
2022/04/28 01:14:36;;;;;;;9.90;2.53;;;;;;;7.79;39.39;99748.97;4983226;28;20041;-73
2022/04/28 01:17:04;;;;;;;6.90;2.45;;;;;;;7.64;39.85;99729.75;4975563;28;20050;-73
2022/04/28 01:19:31;;;;;;;10.05;3.00;;;;;;;7.74;40.11;99756.28;4989069;28;20149;-73
2022/04/28 01:21:59;;;;;;;7.97;2.92;;;;;;;7.69;40.21;99767.94;4989996;28;20042;-73
2022/04/28 01:24:25;;;;;;;7.72;2.75;;;;;;;7.65;40.73;99766.81;4973522;28;20439;-74
2022/04/28 01:26:54;;;;;;;7.75;2.90;;;;;;;7.53;40.76;99745.16;5006882;28;20058;-74
2022/04/28 01:29:21;;;;;;;7.72;2.80;;;;;;;7.64;40.99;99762.41;4991649;28;20054;-74
2022/04/28 01:31:48;;;;;;;6.63;2.42;;;;;;;7.54;40.98;99767.75;5009013;28;20050;-74
2022/04/28 01:34:14;;;;;;;8.98;2.72;;;;;;;7.53;40.97;99769.66;4988105;28;20096;-75
2022/04/28 01:36:41;;;;;;;;;;;;;;;7.48;41.00;99773.13;4990854;28;20054;-74
2022/04/28 01:39:09;;;;;;;8.73;2.80;;;;;;;7.51;41.07;99780.81;5006542;28;20020;-74
2022/04/28 01:41:36;;;;;;;9.13;2.83;;;;;;;7.45;41.04;99781.00;4992441;28;20053;-74
2022/04/28 01:44:04;;;;;;;9.02;2.88;;;;;;;7.44;41.09;99790.25;5003284;28;20054;-74
2022/04/28 01:46:31;;;;;;;8.88;2.60;;;;;;;7.32;41.05;99785.75;4997131;28;20053;-74
2022/04/28 01:49:16;;;;;;;9.85;3.85;;;;;;;7.34;40.90;99793.66;5009926;28;20046;-75
2022/04/28 01:55:18;;;;;;;9.07;2.78;;;;;;;7.36;40.06;99795.03;5013575;28;20533;-74
2022/04/28 01:58:05;;;;;;;7.18;1.92;;;;;;;7.31;39.92;99805.84;4981608;28;20057;-75
2022/04/28 02:01:00;;;;;;;5.82;2.28;;;;;;;7.28;39.50;99809.09;4922702;28;20059;-74
2022/04/28 02:03:27;;;;;;;6.40;2.13;;;;;;;7.24;39.17;99816.94;4981425;28;20041;-75
2022/04/28 02:05:56;;;;;;;6.80;2.17;;;;;;;7.24;38.76;99814.22;4979874;28;20085;-75
2022/04/28 02:08:23;;;;;;;7.07;2.38;;;;;;;7.19;38.88;99816.03;4992787;28;20414;-73
2022/04/28 02:10:50;;;;;;;9.13;2.17;;;;;;;7.19;38.42;99819.59;4977440;28;20054;-75
2022/04/28 02:13:43;;;;;;;5.43;2.00;;;;;;;7.16;38.04;99822.78;5009192;28;20309;-74
2022/04/28 02:16:29;;;;;;;6.33;2.07;;;;;;;7.23;37.91;99823.44;4972419;28;20065;-74
2022/04/28 02:19:16;;;;;;;;;;;;;;;7.22;38.07;99818.25;4988645;28;20319;-74
2022/04/28 02:21:43;;;;;;;7.22;2.45;;;;;;;7.11;37.72;99806.41;5009235;28;19925;-74
2022/04/28 02:24:12;;;;;;;6.15;2.08;;;;;;;7.26;37.53;99824.00;4994436;28;20050;-73
2022/04/28 02:26:40;;;;;;;7.93;2.40;;;;;;;7.22;37.43;99823.69;5008151;28;20510;-74
2022/04/28 02:29:06;;;;;;;;;;;;;;;7.19;37.23;99822.31;4997094;28;20046;-75
2022/04/28 02:31:37;;;;;;;5.47;2.10;;;;;;;7.07;37.67;99830.56;5009044;28;20028;-74
2022/04/28 02:34:03;;;;;;;7.38;2.50;;;;;;;7.02;37.91;99827.78;4993900;28;20136;-74
2022/04/28 02:36:35;;;;;;;5.88;2.20;;;;;;;7.06;38.06;99828.09;5013023;28;20172;-76
2022/04/28 02:39:02;;;;;;;8.48;2.40;;;;;;;7.11;38.03;99830.06;4976507;28;20045;-73
2022/04/28 02:41:29;;;;;;;;;;;;;;;7.11;38.13;99825.44;4994948;28;20058;-73
2022/04/28 02:43:58;;;;;;;6.90;2.40;;;;;;;7.14;38.41;99830.38;4994540;28;19933;-73
2022/04/28 02:46:25;;;;;;;8.75;2.60;;;;;;;7.13;38.49;99826.00;4993956;28;20081;-74
2022/04/28 02:49:12;;;;;;;10.82;2.67;;;;;;;7.15;38.82;99828.50;4989219;28;20425;-72
2022/04/28 02:51:38;;;;;;;10.43;2.70;;;;;;;7.14;39.09;99837.72;4977446;28;20524;-72
2022/04/28 02:54:05;;;;;;;6.88;2.63;;;;;;;7.21;39.26;99841.06;5009169;28;20153;-71
2022/04/28 02:56:36;;;;;;;6.88;2.85;;;;;;;7.06;39.74;99830.81;4993777;28;20406;-71
2022/04/28 02:59:05;;;;;;;8.05;2.80;;;;;;;7.15;39.82;99836.66;4992223;28;20510;-71
2022/04/28 03:01:32;;;;;;;12.00;3.30;;;;;;;7.14;39.79;99843.97;5011652;28;20049;-73
2022/04/28 03:03:58;;;;;;;9.68;3.08;;;;;;;7.13;39.70;99849.69;4991813;28;20219;-72
2022/04/28 03:11:56;;;;;;;10.90;2.78;;;;;;;7.08;39.11;99859.38;4978343;28;20560;-72
2022/04/28 03:14:24;;;;;;;7.93;2.50;;;;;;;7.12;38.62;99853.47;4975324;28;20045;-74
2022/04/28 03:16:50;;;;;;;6.95;2.20;;;;;;;7.08;38.25;99861.31;4961552;28;20050;-73
2022/04/28 03:19:16;;;;;;;7.18;2.20;;;;;;;7.11;37.71;99866.22;4992750;28;20046;-74
2022/04/28 03:21:44;;;;;;;;;;;;;;;7.12;37.41;99865.16;4996777;28;20048;-74
2022/04/28 03:24:10;;;;;;;6.47;2.40;;;;;;;7.24;36.57;99875.91;4976891;28;19925;-72
2022/04/28 03:26:38;;;;;;;4.35;1.80;;;;;;;7.27;36.12;99869.16;4998146;28;20046;-72
2022/04/28 03:29:08;;;;;;;3.60;1.50;;;;;;;7.27;35.83;99867.28;4984828;28;20557;-72
2022/04/28 03:31:35;;;;;;;9.18;1.85;;;;;;;7.26;35.59;99881.97;4977033;28;20041;-73
2022/04/28 03:34:08;;;;;;;6.55;1.88;;;;;;;7.31;35.57;99883.91;5011079;28;20050;-72
2022/04/28 03:36:50;;;;;;;7.80;2.03;;;;;;;7.29;35.61;99883.34;4994679;28;20058;-73
2022/04/28 03:39:19;;;;;;;8.90;2.03;;;;;;;7.31;35.57;99894.78;4994974;28;20052;-72
2022/04/28 03:41:45;;;;;;;4.97;1.95;;;;;;;7.26;35.43;99886.56;4980278;28;20506;-73
2022/04/28 03:44:11;;;;;;;8.57;2.08;;;;;;;7.26;35.54;99890.13;4988793;28;20054;-73
2022/04/28 03:46:39;;;;;;;4.85;1.73;;;;;;;7.20;35.61;99889.22;4973121;28;20051;-72
2022/04/28 03:49:06;;;;;;;5.82;2.05;;;;;;;7.18;35.73;99895.97;4966506;28;20045;-73
2022/04/28 03:51:32;;;;;;;9.10;2.33;;;;;;;7.11;35.42;99895.34;4983401;28;20045;-73
2022/04/28 03:54:01;;;;;;;12.00;2.13;;;;;;;7.22;35.60;99903.38;4994457;28;20644;-73
2022/04/28 03:56:32;;;;;;;10.05;2.60;;;;;;;7.26;35.25;99902.88;4978011;28;20317;-73
2022/04/28 03:59:05;;;;;;;6.18;2.30;;;;;;;7.15;35.40;99900.00;4993086;28;20524;-74
2022/04/28 04:01:48;;;;;;;6.53;2.08;;;;;;;7.18;35.40;99915.84;4959469;28;20101;-72
2022/04/28 04:04:15;;;;;;;9.25;2.10;;;;;;;7.22;35.52;99918.88;4993980;28;20049;-74
2022/04/28 04:06:46;;;;;;;10.95;2.15;;;;;;;7.33;35.58;99922.56;4977949;28;20058;-73
2022/04/28 04:09:36;;;;;;;7.13;2.50;;;;;;;7.32;35.35;99924.47;4982361;28;20137;-72
2022/04/28 04:12:35;;;;;;;9.82;2.25;;;;;;;7.40;35.56;99923.22;4937492;28;20049;-72
2022/04/28 04:15:11;;;;;;;7.43;2.30;;;;;;;7.31;35.58;99917.38;5011813;28;20081;-73
2022/04/28 04:17:57;;;;;;;6.55;2.15;;;;;;;7.37;35.69;99921.81;4995090;28;20522;-74
2022/04/28 04:20:27;;;;;;;6.55;2.10;;;;;;;7.49;35.54;99932.59;4989676;28;20061;-74
2022/04/28 04:22:54;;;;;;;5.57;1.95;;;;;;;7.47;35.84;99929.28;4992267;28;20054;-73
2022/04/28 04:25:21;;;;;;;4.70;1.88;;;;;;;7.47;35.78;99942.88;4992984;28;20050;-73
2022/04/28 04:27:51;;;;;;;10.82;2.13;;;;;;;7.50;35.77;99941.56;4974695;28;20110;-74
2022/04/28 04:33:27;;;;;;;6.75;1.92;;;;;;;7.37;35.36;99945.47;4992693;28;20053;-75
2022/04/28 04:35:54;;;;;;;5.50;1.90;;;;;;;7.41;35.42;99945.78;4976137;28;20046;-73
2022/04/28 04:38:21;;;;;;;6.85;2.30;;;;;;;7.34;35.39;99957.69;4991553;28;20042;-73
2022/04/28 04:40:47;;;;;;;6.65;2.67;;;;;;;7.48;35.23;99960.06;4973758;28;20099;-73
2022/04/28 04:43:13;;;;;;;6.85;2.30;;;;;;;7.49;35.18;99948.09;4993025;28;20042;-74
2022/04/28 04:45:44;;;;;;;10.32;2.15;;;;;;;7.60;34.98;99958.06;4993223;28;20149;-73
2022/04/28 04:48:34;;;;;;;7.10;1.90;;;;;;;7.62;34.73;99952.34;4967302;28;20077;-73
2022/04/28 04:51:06;;;;;;;9.80;2.20;;;;;;;7.65;34.82;99977.16;4997042;28;20049;-74
2022/04/28 04:53:46;;;;;;;8.27;1.83;;;;;;;7.67;34.68;99966.03;4977062;28;20129;-74
2022/04/28 04:56:14;;;;;;;;;;;;;;;7.77;34.30;99976.25;4992105;28;20046;-74
2022/04/28 04:58:40;;;;;;;7.57;2.47;;;;;;;7.73;34.39;99977.81;4966557;28;20301;-75
2022/04/28 05:01:08;;;;;;;5.68;1.98;;;;;;;7.77;34.30;99978.97;4992294;28;20046;-73
2022/04/28 05:03:35;;;;;;;8.57;2.20;;;;;;;7.82;34.19;99980.94;4992263;28;20061;-71
2022/04/28 05:06:02;;;;;;;14.90;2.53;;;;;;;7.82;34.29;99981.75;5008794;28;20045;-73
2022/04/28 05:08:34;;;;;;;11.40;2.30;;;;;;;7.84;34.08;99982.31;5010509;28;20085;-73
2022/04/28 05:11:04;;;;;;;6.50;2.10;;;;;;;7.85;34.05;99981.22;4992061;28;20062;-74
2022/04/28 05:13:31;;;;;;;7.85;2.30;;;;;;;8.01;33.72;99989.59;4992066;28;20422;-73
2022/04/28 05:16:00;;;;;;;6.75;2.50;;;;;;;8.04;33.67;99984.47;5007114;28;20085;-72
2022/04/28 05:18:41;;;;;;;5.30;1.90;;;;;;;8.07;33.58;99994.03;4992688;28;20450;-72
2022/04/28 05:21:26;;;;;;;11.85;2.47;;;;;;;8.01;33.67;99982.25;5010654;28;20046;-73
2022/04/28 05:24:16;;;;;;;11.32;2.63;;;;;;;8.16;33.52;99980.81;4958180;28;20041;-73
2022/04/28 05:27:03;;;;;;;7.25;2.75;;;;;;;8.23;33.21;99992.31;4955410;28;20514;-72
2022/04/28 05:29:56;;;;;;;12.65;2.72;;;;;;;8.26;33.17;99989.06;4985267;28;20045;-73
2022/04/28 05:32:55;;;;;;;14.65;2.95;;;;;;;8.30;33.32;99994.84;4985548;28;20417;-73
2022/04/28 05:35:41;;;;;;;7.20;3.03;;;;;;;8.28;33.61;99994.28;4991780;28;20050;-73
2022/04/28 05:38:08;;;;;;;10.70;2.90;;;;;;;8.28;33.45;99991.56;4979123;28;20413;-73
2022/04/28 05:40:35;;;;;;;9.02;2.45;;;;;;;8.37;33.26;99990.84;5008882;28;20042;-72
2022/04/28 05:45:46;;;;;;;6.80;2.33;;;;;;;8.45;32.91;100005.91;5013480;28;20058;-72
2022/04/28 05:48:15;;;;;;;12.30;2.38;;;;;;;8.53;32.86;100001.94;4994598;28;20132;-71
2022/04/28 05:50:45;;;;;;;8.57;2.30;;;;;;;8.53;32.90;100007.41;4997137;28;20042;-70
2022/04/28 05:57:20;;;;;;;5.72;1.95;;;;;;;8.74;32.38;100002.16;4993547;28;20050;-71
2022/04/28 05:59:46;;;;;;;17.05;2.30;;;;;;;8.73;32.41;100005.94;4993593;28;20042;-71
2022/04/28 06:02:31;;;;;;;11.43;2.05;;;;;;;8.72;32.13;99993.41;5011090;28;20494;-73
2022/04/28 06:04:58;;;;;;;7.68;2.75;;;;;;;8.79;31.84;100010.41;4994421;28;20054;-70
2022/04/28 06:07:25;;;;;;;9.13;2.55;;;;;;;8.78;31.86;100009.56;4997773;28;20049;-72
2022/04/28 06:09:54;;;;;;;13.48;2.70;;;;;;;8.73;32.06;100011.41;4977192;28;20078;-72
2022/04/28 06:12:26;;;;;;;8.57;2.40;;;;;;;8.88;31.58;100010.75;5002051;28;20042;-71
2022/04/28 06:15:15;;;;;;;6.00;2.20;;;;;;;9.04;31.59;100008.97;4981457;28;20065;-73
2022/04/28 06:18:07;;;;;;;12.75;2.58;;;;;;;9.08;31.42;100002.75;4987396;28;20182;-73
2022/04/28 06:20:33;;;;;;;9.73;1.90;;;;;;;9.27;31.12;100002.34;5011513;28;20041;-70
2022/04/28 06:23:14;;;;;;;9.50;2.35;;;;;;;9.21;30.90;100008.84;5010608;28;20060;-71
2022/04/28 06:25:45;;;;;;;6.47;2.30;;;;;;;9.10;30.89;100018.03;4978818;28;20132;-74
2022/04/28 06:28:14;;;;;;;7.22;2.17;;;;;;;9.16;30.51;100009.63;5008635;28;20533;-71
2022/04/28 06:30:45;;;;;;;6.35;1.98;;;;;;;9.23;30.45;100017.59;4992478;28;20053;-73
2022/04/28 06:33:25;;;;;;;6.47;2.10;;;;;;;9.29;30.54;100004.81;4975438;28;20056;-71
2022/04/28 06:35:59;;;;;;;11.85;2.50;;;;;;;9.36;30.62;100000.78;5014133;28;20054;-72
2022/04/28 06:38:33;;;;;;;10.45;2.97;;;;;;;9.46;30.53;100007.41;4966509;28;20038;-72
2022/04/28 06:41:00;;;;;;;9.70;2.80;;;;;;;9.58;30.21;100004.47;4992938;28;20141;-72
2022/04/28 06:43:27;;;;;;;14.27;2.80;;;;;;;9.55;30.44;100011.28;4993100;28;20042;-71
2022/04/28 06:46:18;;;;;;;13.55;3.03;;;;;;;9.60;30.26;100005.03;5009646;28;20371;-71
2022/04/28 06:49:03;;;;;;;8.32;2.75;;;;;;;9.69;29.90;100008.09;5007845;28;20482;-71
2022/04/28 06:52:05;;;;;;;8.48;2.30;;;;;;;9.72;29.48;100007.56;4931877;29;20047;-71
2022/04/28 06:54:52;;;;;;;9.80;2.10;;;;;;;9.72;29.16;100022.03;4992528;28;20054;-71
2022/04/28 06:57:23;;;;;;;6.97;1.98;;;;;;;9.81;28.50;100016.91;4990905;28;20041;-72
2022/04/28 06:59:50;;;;;;;4.68;1.60;;;;;;;9.80;28.27;100018.00;5005992;28;20049;-72
2022/04/28 07:02:20;;;;;;;10.10;2.58;;;;;;;9.87;28.26;100012.28;5014542;28;20052;-72
2022/04/28 07:04:49;;;;;;;7.93;2.33;;;;;;;10.04;28.40;100009.34;5003272;28;20042;-71
2022/04/28 07:07:19;;;;;;;8.45;2.05;;;;;;;10.05;28.02;100014.56;4991992;28;20057;-71
2022/04/28 07:09:48;;;;;;;7.90;1.88;;;;;;;10.04;28.09;100017.56;4978407;28;20046;-70
2022/04/28 07:12:15;;;;;;;10.23;2.35;;;;;;;10.07;28.11;100017.03;4978391;28;20123;-71
2022/04/28 07:14:58;;;;;;;9.45;2.40;;;;;;;10.11;27.98;100022.78;5011836;28;20061;-70
2022/04/28 07:17:43;;;;;;;8.13;2.10;;;;;;;10.08;27.78;100024.16;4979444;28;20045;-70
2022/04/28 07:20:12;;;;;;;9.80;1.90;;;;;;;10.13;28.06;100023.31;4979320;28;20069;-71
2022/04/28 07:22:40;;;;;;;6.97;1.95;;;;;;;10.11;28.41;100025.50;5008403;28;20072;-70
2022/04/28 07:25:08;;;;;;;6.95;2.00;;;;;;;10.18;28.90;100017.91;4976479;28;20042;-71
2022/04/28 07:27:35;;;;;;;8.10;1.85;;;;;;;10.18;28.88;100010.50;4988118;28;20513;-70
2022/04/28 07:30:34;;;;;;;8.88;2.00;;;;;;;10.36;28.00;100011.97;4959361;28;20065;-71
2022/04/28 07:33:03;;;;;;;7.10;2.10;;;;;;;10.45;27.25;100028.69;4989375;28;20478;-72
2022/04/28 07:35:33;;;;;;;5.53;1.88;;;;;;;10.36;26.99;100024.78;5009714;28;20042;-70
2022/04/28 07:38:22;;;;;;;7.95;1.80;;;;;;;10.36;27.21;100013.84;4994275;28;20049;-70
2022/04/28 07:41:05;;;;;;;12.40;1.98;;;;;;;10.45;27.51;100011.44;4980382;28;20049;-71
2022/04/28 07:43:35;;;;;;;13.43;2.20;;;;;;;10.33;27.40;100003.47;4992506;28;20053;-70
2022/04/28 07:46:05;;;;;;;8.55;2.10;;;;;;;10.49;27.82;100007.13;4993399;28;20060;-71
2022/04/28 07:48:40;;;;;;;6.95;2.20;;;;;;;10.63;27.42;100023.81;4994051;28;20609;-71
2022/04/28 07:51:06;;;;;;;9.98;2.50;;;;;;;10.71;26.88;100017.00;4992926;28;20073;-71
2022/04/28 07:53:36;;;;;;;11.70;1.90;;;;;;;10.78;26.57;100018.38;4977040;28;20137;-71
2022/04/28 07:56:12;;;;;;;8.15;1.80;;;;;;;10.95;26.46;100028.25;4993501;28;20053;-70
2022/04/28 07:58:41;;;;;;;;;;;;;;;11.06;26.55;100021.69;4978305;28;20049;-71
2022/04/28 08:01:41;;;;;;;10.63;2.28;;;;;;;10.99;26.51;100012.94;4994200;28;19925;-71
2022/04/28 08:04:07;;;;;;;7.72;2.53;;;;;;;11.16;26.11;100020.88;4992867;28;20462;-70
2022/04/28 08:06:34;;;;;;;13.00;2.15;;;;;;;11.28;26.46;100028.00;4993193;28;20065;-71
2022/04/28 08:09:01;;;;;;;7.15;2.47;;;;;;;11.34;26.69;100022.25;4993829;28;20050;-71
2022/04/28 08:11:30;;;;;;;10.35;2.03;;;;;;;11.52;27.13;100024.69;4991512;28;20058;-71
2022/04/28 08:13:57;;;;;;;6.10;2.30;;;;;;;11.61;26.89;100023.03;4993151;28;20112;-71
2022/04/28 08:16:26;;;;;;;8.25;1.98;;;;;;;11.73;26.56;100025.47;5010329;28;20565;-71
2022/04/28 08:18:54;;;;;;;9.32;2.05;;;;;;;11.84;26.17;100016.16;4976650;28;20061;-71
2022/04/28 08:21:26;;;;;;;8.25;2.00;;;;;;;11.75;26.20;100015.91;4993601;28;20104;-72
2022/04/28 08:23:54;;;;;;;8.07;2.42;;;;;;;11.75;25.90;100024.13;5008859;28;20160;-72
2022/04/28 08:26:24;;;;;;;10.32;1.88;;;;;;;11.78;25.51;100011.75;5010922;28;20054;-71
2022/04/28 08:28:54;;;;;;;6.70;2.13;;;;;;;11.84;25.18;100013.41;4989640;28;20480;-69
2022/04/28 08:31:21;;;;;;;5.90;2.15;;;;;;;11.73;25.05;100012.63;4992931;28;20104;-71
2022/04/28 08:33:49;;;;;;;8.38;2.28;;;;;;;11.80;24.67;100027.94;4960181;28;20150;-70
2022/04/28 08:36:16;;;;;;;15.15;2.47;;;;;;;11.73;24.73;100020.84;4993664;28;20091;-71
2022/04/28 08:38:46;;;;;;;12.05;2.85;;;;;;;11.80;24.69;100023.28;4992027;28;20058;-70
2022/04/28 08:41:15;;;;;;;11.43;2.33;;;;;;;11.85;24.50;100016.97;4993012;28;20085;-70
2022/04/28 08:44:02;;;;;;;6.40;2.10;;;;;;;12.02;24.34;100003.81;4973604;28;20089;-70
2022/04/28 08:49:15;;;;;;;13.65;3.45;;;;;;;12.28;24.60;100016.59;4990287;28;20506;-70
2022/04/28 08:51:43;;;;;;;12.00;2.50;;;;;;;12.42;24.65;100011.31;4976481;28;20086;-71
2022/04/28 08:54:13;;;;;;;7.72;2.33;;;;;;;12.60;25.07;100007.91;4971023;28;20058;-70
2022/04/28 08:56:40;;;;;;;5.30;2.10;;;;;;;12.82;25.25;100016.81;4958271;28;20387;-70
2022/04/28 08:59:07;;;;;;;;;;;;;;;12.98;25.34;100014.81;4975661;28;20057;-68
2022/04/28 09:01:35;;;;;;;10.65;2.50;;;;;;;13.09;25.59;100015.56;4979736;28;19925;-68
2022/04/28 09:04:23;;;;;;;15.45;2.40;;;;;;;13.36;26.04;100020.53;5008245;28;20406;-68
2022/04/28 09:07:08;;;;;;;15.05;2.65;;;;;;;13.56;26.67;100019.56;4991107;28;20140;-68
2022/04/28 09:09:53;;;;;;;12.25;2.33;;;;;;;13.56;26.52;100015.97;5010286;28;20140;-68
2022/04/28 09:12:54;;;;;;;11.50;2.25;;;;;;;13.51;26.31;100011.38;5010435;28;20104;-68
2022/04/28 09:15:40;;;;;;;8.45;2.60;;;;;;;13.43;26.00;100018.31;4992838;28;20100;-68
2022/04/28 09:18:18;;;;;;;6.72;2.10;;;;;;;13.49;25.68;100010.81;4975880;28;20046;-69
2022/04/28 09:20:45;;;;;;;8.98;2.40;;;;;;;13.61;25.49;99985.72;4999679;28;20429;-69
2022/04/28 09:23:14;;;;;;;10.90;2.55;;;;;;;13.79;24.75;99997.88;4993091;28;20510;-68
2022/04/28 09:25:45;;;;;;;12.40;2.70;;;;;;;13.90;24.51;99999.41;4976883;28;20050;-69
2022/04/28 09:28:13;;;;;;;8.30;2.47;;;;;;;13.86;24.50;99992.03;4992665;28;20144;-69
2022/04/28 09:30:43;;;;;;;10.02;2.50;;;;;;;13.97;24.98;99995.50;5011418;28;20131;-69
2022/04/28 09:33:41;;;;;;;11.65;2.50;;;;;;;13.98;25.42;99994.41;4912554;28;20147;-69
2022/04/28 09:36:44;;;;;;;10.90;2.35;;;;;;;13.69;26.11;99992.53;4985056;28;20053;-69
2022/04/28 09:44:58;;;;;;;9.38;2.30;;;;;;;13.37;25.58;100015.88;5009137;28;20498;-69
2022/04/28 09:47:25;;;;;;;7.35;2.47;;;;;;;13.22;25.49;100005.81;5016552;28;20107;-69
2022/04/28 09:49:55;;;;;;;8.15;2.30;;;;;;;13.23;25.95;100019.28;5010390;28;20148;-69
2022/04/28 09:52:31;;;;;;;7.45;2.72;;;;;;;13.09;25.44;100019.09;5029945;28;20053;-69
2022/04/28 09:55:17;;;;;;;7.63;2.53;;;;;;;13.25;24.48;100017.06;5023721;28;20119;-69
2022/04/28 09:58:03;;;;;;;9.73;2.50;;;;;;;13.38;23.96;100012.81;5016370;28;20046;-69
2022/04/28 10:00:29;;;;;;;;;;;;;;;13.43;23.80;100014.72;5012025;28;20045;-69
2022/04/28 10:02:55;;;;;;;6.90;2.47;;;;;;;13.45;24.03;100016.09;5029749;28;20370;-70
2022/04/28 10:05:28;;;;;;;12.90;2.63;;;;;;;13.55;24.41;100012.44;5007871;28;20046;-70
2022/04/28 10:08:09;;;;;;;12.55;2.53;;;;;;;13.73;24.79;100005.38;4979549;28;20104;-69
2022/04/28 10:10:36;;;;;;;7.55;2.20;;;;;;;13.88;24.39;100022.78;5002067;28;20049;-69
2022/04/28 10:13:05;;;;;;;8.70;2.60;;;;;;;14.06;24.19;100021.22;5015087;28;20052;-68
2022/04/28 10:15:41;;;;;;;9.68;2.55;;;;;;;14.38;23.91;100018.94;4996765;28;20430;-69
2022/04/28 10:18:11;;;;;;;9.93;2.40;;;;;;;14.54;23.14;100014.03;4978228;28;20145;-69
2022/04/28 10:20:41;;;;;;;9.93;2.40;;;;;;;14.65;22.30;100017.44;5012499;28;20049;-69
2022/04/28 10:23:11;;;;;;;9.68;2.85;;;;;;;14.43;21.45;100011.41;5015318;28;20539;-70
2022/04/28 10:34:29;;;;;;;10.95;2.65;;;;;;;14.75;22.90;100011.84;5000235;28;20062;-70
2022/04/28 10:36:58;;;;;;;9.80;2.50;;;;;;;14.87;23.10;100014.97;4995662;28;20054;-70
2022/04/28 10:39:39;;;;;;;11.18;2.72;;;;;;;14.95;22.33;100007.97;5013209;28;20076;-69
2022/04/28 10:42:16;;;;;;;11.25;2.67;;;;;;;15.01;22.44;100003.19;4995497;28;20164;-69
2022/04/28 10:44:54;;;;;;;9.18;2.40;;;;;;;14.89;22.51;100007.22;4993536;28;20297;-70
2022/04/28 10:47:33;;;;;;;8.55;2.38;;;;;;;15.15;22.63;100011.50;5012778;28;20045;-70
2022/04/28 10:49:59;;;;;;;13.05;3.08;;;;;;;15.15;22.61;100011.50;5007879;28;20038;-69
2022/04/28 10:52:27;;;;;;;10.02;2.75;;;;;;;15.43;22.51;100006.88;4993022;28;20074;-69
2022/04/28 10:54:54;;;;;;;9.15;3.05;;;;;;;15.59;22.11;100007.44;4993370;28;20058;-70
2022/04/28 10:57:29;;;;;;;21.27;3.75;;;;;;;15.72;22.25;100005.81;4982192;28;20053;-69
2022/04/28 10:59:56;;;;;;;13.45;3.38;;;;;;;15.83;22.47;100017.47;4995160;28;20052;-69
2022/04/28 11:02:46;;;;;;;12.98;3.50;;;;;;;15.99;22.81;100001.47;5012613;28;20057;-69
2022/04/28 11:05:49;;;;;;;13.73;3.33;;;;;;;16.16;22.50;100005.56;5011125;28;20060;-69
2022/04/28 11:08:34;;;;;;;17.25;3.35;;;;;;;16.01;21.96;99998.44;4983788;28;20045;-69
2022/04/28 11:11:05;;;;;;;11.43;2.85;;;;;;;15.90;21.87;99997.78;4993008;28;20523;-68
2022/04/28 11:13:32;;;;;;;9.07;2.90;;;;;;;15.64;22.50;100002.94;4992762;28;20432;-68
2022/04/28 11:16:00;;;;;;;16.45;3.30;;;;;;;15.51;22.52;99986.09;4999741;28;20787;-69
2022/04/28 11:18:27;;;;;;;10.13;2.92;;;;;;;15.58;22.48;99994.78;5011796;28;20050;-71
2022/04/28 11:20:58;;;;;;;14.70;3.20;;;;;;;15.72;22.03;99983.78;5012507;28;20061;-70
2022/04/28 11:23:25;;;;;;;15.95;3.15;;;;;;;15.99;22.08;99995.97;5012598;28;20490;-69
2022/04/28 11:25:51;;;;;;;11.88;3.10;;;;;;;16.13;22.00;99982.16;5011961;28;20053;-69
2022/04/28 11:28:20;;;;;;;10.23;3.15;;;;;;;16.48;21.69;99989.97;4979493;28;20453;-70
2022/04/28 11:30:49;;;;;;;15.98;3.10;;;;;;;16.71;21.76;99984.53;4994595;28;20408;-69
2022/04/28 11:33:16;;;;;;;7.35;2.35;;;;;;;16.58;21.95;99972.38;4994139;28;20454;-70
2022/04/28 11:35:42;;;;;;;15.13;3.88;;;;;;;16.68;22.00;99976.84;5011997;28;20053;-69
2022/04/28 11:38:09;;;;;;;8.68;2.75;;;;;;;16.84;21.56;99972.59;5010932;28;20057;-69
2022/04/28 11:40:37;;;;;;;17.13;3.35;;;;;;;17.12;21.02;99979.97;5011924;28;20056;-69
2022/04/28 11:43:05;;;;;;;15.93;3.20;;;;;;;17.44;20.13;99975.28;4994753;28;20066;-68
2022/04/28 11:45:33;;;;;;;6.93;2.58;;;;;;;17.74;19.93;99967.31;5011194;28;20046;-68
2022/04/28 11:48:00;;;;;;;13.23;3.00;;;;;;;17.74;20.05;99972.84;4993991;28;20058;-70
2022/04/28 11:50:32;;;;;;;19.92;3.95;;;;;;;17.37;20.21;99969.38;5011821;28;20045;-69
2022/04/28 11:53:00;;;;;;;10.60;3.20;;;;;;;16.98;20.62;99955.16;5011422;28;20069;-70
2022/04/28 11:55:33;;;;;;;13.73;3.50;;;;;;;16.60;20.67;99970.13;5011664;28;20084;-69
2022/04/28 11:58:01;;;;;;;12.13;3.05;;;;;;;16.46;21.16;99964.66;5011586;28;20052;-68
2022/04/28 12:00:27;;;;;;;12.80;2.92;;;;;;;16.85;20.50;99968.69;4994352;28;20053;-68
2022/04/28 12:02:55;;;;;;;10.95;3.30;;;;;;;16.63;20.29;99963.16;4974457;28;20042;-70
2022/04/28 12:05:25;;;;;;;;;;;;;;;16.45;20.63;99966.56;4993749;28;20104;-69
2022/04/28 12:07:53;;;;;;;9.55;3.15;;;;;;;16.84;20.66;99956.03;4992123;28;19933;-70
2022/04/28 12:15:58;;;;;;;14.15;4.53;;;;;;;16.85;19.72;99945.81;5022340;28;20099;-68
2022/04/28 12:21:21;;;;;;;10.32;3.90;;;;;;;15.93;20.35;99947.56;5008690;28;20050;-67
2022/04/28 12:23:50;;;;;;;18.42;4.90;;;;;;;15.85;20.59;99940.81;4990520;28;20136;-70
2022/04/28 12:26:19;;;;;;;11.20;3.60;;;;;;;15.63;20.95;99933.25;4993406;28;20045;-69
2022/04/28 12:28:47;;;;;;;12.82;3.15;;;;;;;15.60;20.75;99934.66;4988114;28;20046;-68
2022/04/28 12:31:15;;;;;;;11.30;3.38;;;;;;;15.58;20.67;99938.84;5009024;28;20485;-69
2022/04/28 12:33:45;;;;;;;12.88;4.00;;;;;;;15.50;20.51;99940.38;5009854;28;20046;-69
2022/04/28 12:36:13;;;;;;;10.75;3.83;;;;;;;15.65;20.50;99931.00;5007475;28;20077;-69
2022/04/28 12:38:44;;;;;;;;;;;;;;;15.69;20.25;99933.97;5015404;28;20128;-69
2022/04/28 12:41:15;;;;;;;12.95;2.92;;;;;;;15.83;19.78;99937.53;5019364;28;19931;-66
2022/04/28 12:43:50;;;;;;;8.82;3.10;;;;;;;15.68;19.82;99930.38;5011488;28;20057;-67